Time;durP1;ratioP1;P1;durP2;ratioP2;P2;SDS_P1;SDS_P2;PMS_P1;PMS_P2;Temp;Humidity;BMP_temperature;BMP_pressure;BME280_temperature;BME280_humidity;BME280_pressure;Samples;Min_cycle;Max_cycle;Signal;HPM_P1;HPM_P2
2021/09/01 00:00:31;;;;;;;;;;;25.90;99.90;;;;;;1636702;85;20260;-91
2021/09/01 00:16:00;;;;;;;;;;;26.00;99.90;;;;;;1539994;92;20191;-93
2021/09/01 00:18:40;;;;;;;;;;;26.00;99.90;;;;;;1517466;92;20199;-94
2021/09/01 00:21:09;;;;;;;;;;;26.10;99.90;;;;;;1543574;91;20302;-95
2021/09/01 00:23:39;;;;;;;;;;;26.10;99.90;;;;;;1535251;92;20381;-91
2021/09/01 00:26:09;;;;;;;;;;;26.20;99.90;;;;;;1531381;92;20352;-94
2021/09/01 00:28:38;;;;;;;;;;;26.20;99.90;;;;;;1533337;92;20330;-93
2021/09/01 00:31:12;;;;;;;;;;;26.30;99.90;;;;;;1551174;91;20243;-92
2021/09/01 00:33:42;;;;;;;;;;;26.30;99.90;;;;;;1581049;87;20297;-92
2021/09/01 00:36:12;;;;;;;;;;;26.30;99.90;;;;;;1656148;83;20277;-92
2021/09/01 00:38:42;;;;;;;;;;;26.40;99.90;;;;;;1713286;82;20247;-91
2021/09/01 00:41:13;;;;;;;;;;;26.40;99.90;;;;;;1724636;82;20344;-91
2021/09/01 00:43:58;;;;;;;;;;;26.40;99.90;;;;;;1735438;82;20537;-92
2021/09/01 00:46:32;;;;;;;;;;;26.50;99.90;;;;;;1771909;77;20516;-93
2021/09/01 00:49:02;;;;;;;;;;;26.60;99.90;;;;;;1836987;77;20214;-91
2021/09/01 00:51:32;;;;;;;;;;;26.60;99.90;;;;;;1834315;77;20454;-94
2021/09/01 00:54:02;;;;;;;;;;;26.60;99.90;;;;;;1844106;77;20169;-90
2021/09/01 00:56:32;;;;;;;;;;;26.60;99.90;;;;;;1840346;77;20220;-91
2021/09/01 00:59:03;;;;;;;;;;;26.60;99.90;;;;;;1777905;80;20175;-93
2021/09/01 01:01:34;;;;;;;;;;;26.60;99.90;;;;;;1845200;75;20297;-92
2021/09/01 01:04:04;;;;;;;;;;;26.60;99.90;;;;;;1889719;75;20181;-93
2021/09/01 01:06:34;;;;;;;;;;;26.60;99.90;;;;;;1890206;75;20188;-92
2021/09/01 01:09:24;;;;;;;;;;;26.60;99.90;;;;;;1890085;75;20195;-91
2021/09/01 01:11:55;;;;;;;;;;;26.60;99.90;;;;;;1874720;75;20152;-90
2021/09/01 01:14:29;;;;;;;;;;;26.60;99.90;;;;;;1893941;74;20268;-90
2021/09/01 01:16:58;;;;;;;;;;;26.70;99.90;;;;;;1891641;75;20093;-91
2021/09/01 01:19:28;;;;;;;;;;;26.80;99.90;;;;;;1892528;75;20150;-92
2021/09/01 01:21:58;;;;;;;;;;;26.80;99.90;;;;;;1888196;75;20202;-93
2021/09/01 01:24:50;;;;;;;;;;;26.90;99.90;;;;;;1892669;75;20192;-94
2021/09/01 01:27:21;;;;;;;;;;;27.00;99.90;;;;;;1893705;75;20136;-89
2021/09/01 01:29:51;;;;;;;;;;;27.10;99.90;;;;;;1894189;75;20288;-91
2021/09/01 01:32:20;;;;;;;;;;;27.10;99.90;;;;;;1888252;75;20160;-93
2021/09/01 01:35:26;;;;;;;;;;;27.20;99.90;;;;;;1889174;75;20156;-89
2021/09/01 01:37:51;;;;;;;;;;;27.20;99.90;;;;;;1877310;75;20221;-89
2021/09/01 01:40:42;;;;;;;;;;;27.30;99.90;;;;;;1892741;75;20172;-91
2021/09/01 01:43:31;;;;;;;;;;;27.30;99.90;;;;;;1885846;74;20185;-90
2021/09/01 01:46:27;;;;;;;;;;;27.30;99.90;;;;;;1899449;74;20164;-95
2021/09/01 01:52:27;;;;;;;;;;;27.30;99.90;;;;;;1881317;76;20273;-94
2021/09/01 01:55:19;;;;;;;;;;;27.40;99.90;;;;;;1882965;72;20163;-87
2021/09/01 01:57:54;;;;;;;;;;;27.50;99.90;;;;;;1878717;73;20323;-89
2021/09/01 02:00:49;;;;;;;;;;;27.50;99.90;;;;;;1848056;75;20182;-92
2021/09/01 02:03:28;;;;;;;;;;;27.50;99.90;;;;;;1837150;78;20115;-94
2021/09/01 02:08:48;;;;;;;;;;;27.60;99.90;;;;;;1883159;72;20194;-94
2021/09/01 02:11:18;;;;;;;;;;;27.60;99.90;;;;;;1898621;74;20250;-91
2021/09/01 02:13:51;;;;;;;;;;;27.70;99.90;;;;;;1895494;74;20228;-91
2021/09/01 02:16:21;;;;;;;;;;;27.90;99.90;;;;;;1900750;75;20190;-89
2021/09/01 02:18:52;;;;;;;;;;;28.00;99.90;;;;;;1842607;76;20215;-90
2021/09/01 02:21:21;;;;;;;;;;;28.20;99.90;;;;;;1900504;75;20244;-89
2021/09/01 02:23:51;;;;;;;;;;;28.30;99.90;;;;;;1916340;74;20234;-94
2021/09/01 02:26:22;;;;;;;;;;;28.40;99.90;;;;;;1913705;74;20189;-93
2021/09/01 02:28:52;;;;;;;;;;;28.40;99.90;;;;;;1883851;74;20234;-92
2021/09/01 02:31:33;;;;;;;;;;;28.50;99.90;;;;;;1918306;74;20211;-91
2021/09/01 02:34:02;;;;;;;;;;;28.50;99.90;;;;;;1909037;74;20269;-91
2021/09/01 02:36:32;;;;;;;;;;;28.60;99.90;;;;;;1915033;74;20109;-92
2021/09/01 02:39:02;;;;;;;;;;;28.70;99.90;;;;;;1895678;74;20203;-93
2021/09/01 02:44:11;;;;;;;;;;;28.90;99.90;;;;;;1795667;78;20246;-92
2021/09/01 02:46:41;;;;;;;;;;;29.00;99.90;;;;;;1818582;77;20193;-94
2021/09/01 02:51:58;;;;;;;;;;;29.20;99.90;;;;;;1757339;79;20141;-94
2021/09/01 03:00:09;;;;;;;;;;;29.70;99.90;;;;;;1838716;76;20162;-95
2021/09/01 03:02:39;;;;;;;;;;;29.80;99.80;;;;;;1839447;76;20186;-93
2021/09/01 03:05:09;;;;;;;;;;;29.90;99.70;;;;;;1837959;78;20186;-93
2021/09/01 03:07:39;;;;;;;;;;;29.90;99.40;;;;;;1835979;76;20194;-92
2021/09/01 03:10:09;;;;;;;;;;;29.80;99.20;;;;;;1816822;77;20451;-94
2021/09/01 03:12:41;;;;;;;;;;;29.70;98.70;;;;;;1815659;78;20231;-93
2021/09/01 03:15:12;;;;;;;;;;;29.60;98.80;;;;;;1779588;79;20588;-94
2021/09/01 03:17:44;;;;;;;;;;;29.50;99.40;;;;;;1790368;78;20173;-92
2021/09/01 03:20:14;;;;;;;;;;;29.30;99.70;;;;;;1763516;80;20278;-90
2021/09/01 03:22:44;;;;;;;;;;;29.30;99.20;;;;;;1912559;73;20200;-93
2021/09/01 03:25:13;;;;;;;;;;;29.20;99.50;;;;;;1912914;73;20169;-93
2021/09/01 03:27:46;;;;;;;;;;;29.20;99.80;;;;;;1888394;74;20201;-93
2021/09/01 03:30:19;;;;;;;;;;;29.30;99.10;;;;;;1888168;74;20784;-91
2021/09/01 03:32:49;;;;;;;;;;;29.50;99.20;;;;;;1841715;76;20220;-93
2021/09/01 03:35:20;;;;;;;;;;;29.70;99.20;;;;;;1851385;77;20244;-92
2021/09/01 03:37:50;;;;;;;;;;;29.90;98.70;;;;;;1886426;76;20113;-93
2021/09/01 03:40:20;;;;;;;;;;;29.90;97.90;;;;;;1839404;77;20193;-92
2021/09/01 03:43:00;;;;;;;;;;;29.90;98.90;;;;;;1839975;76;20119;-94
2021/09/01 03:45:45;;;;;;;;;;;30.00;98.20;;;;;;1841846;76;20177;-93
2021/09/01 03:48:15;;;;;;;;;;;30.20;98.10;;;;;;1870326;76;20432;-93
2021/09/01 03:50:52;;;;;;;;;;;30.20;97.90;;;;;;1858014;76;20214;-94
2021/09/01 03:53:36;;;;;;;;;;;30.30;97.40;;;;;;1834329;74;20208;-96
2021/09/01 03:56:17;;;;;;;;;;;30.30;97.70;;;;;;1849402;77;20477;-94
2021/09/01 03:59:10;;;;;;;;;;;30.50;97.90;;;;;;1875604;76;20250;-89
2021/09/01 04:01:42;;;;;;;;;;;30.70;97.30;;;;;;1857465;77;20592;-93
2021/09/01 04:04:16;;;;;;;;;;;30.70;97.30;;;;;;1860837;76;20427;-95
2021/09/01 04:06:58;;;;;;;;;;;30.70;96.40;;;;;;1858766;77;20573;-94
2021/09/01 04:09:30;;;;;;;;;;;30.80;96.10;;;;;;1852017;77;20199;-93
2021/09/01 04:12:00;;;;;;;;;;;30.90;96.10;;;;;;1847609;75;20254;-93
2021/09/01 04:14:31;;;;;;;;;;;31.00;97.20;;;;;;1840110;76;20223;-92
2021/09/01 04:17:02;;;;;;;;;;;31.10;96.70;;;;;;1845377;77;20579;-93
2021/09/01 04:19:32;;;;;;;;;;;31.20;96.50;;;;;;1849563;77;20525;-92
2021/09/01 04:22:01;;;;;;;;;;;31.20;96.70;;;;;;1849438;77;20222;-95
2021/09/01 04:24:43;;;;;;;;;;;31.10;96.10;;;;;;1846901;77;20247;-96
2021/09/01 04:27:14;;;;;;;;;;;31.10;95.80;;;;;;1850476;77;20242;-94
2021/09/01 04:29:46;;;;;;;;;;;31.20;96.20;;;;;;1842615;77;20210;-91
2021/09/01 04:32:18;;;;;;;;;;;31.20;95.70;;;;;;1849801;76;20153;-91
2021/09/01 04:35:10;;;;;;;;;;;31.30;95.40;;;;;;1845614;77;20145;-94
2021/09/01 04:37:35;;;;;;;;;;;31.40;95.60;;;;;;1839643;77;20163;-94
2021/09/01 04:40:07;;;;;;;;;;;31.40;95.50;;;;;;1882451;76;20177;-92
2021/09/01 04:42:37;;;;;;;;;;;31.50;94.80;;;;;;1869252;75;20152;-94
2021/09/01 04:45:11;;;;;;;;;;;31.50;94.70;;;;;;1869065;76;20157;-90
2021/09/01 04:47:56;;;;;;;;;;;31.60;94.90;;;;;;1868401;73;20295;-90
2021/09/01 04:50:41;;;;;;;;;;;31.70;94.90;;;;;;1864387;73;20182;-92
2021/09/01 04:53:26;;;;;;;;;;;31.80;94.10;;;;;;1847097;74;20290;-96
2021/09/01 04:55:57;;;;;;;;;;;31.90;93.90;;;;;;1902207;74;20342;-75
2021/09/01 04:58:27;;;;;;;;;;;32.00;94.40;;;;;;1898808;74;20206;-76
2021/09/01 05:00:57;;;;;;;;;;;31.90;91.90;;;;;;1904423;74;20193;-75
2021/09/01 05:03:27;;;;;;;;;;;31.70;91.70;;;;;;1895397;74;20216;-77
2021/09/01 05:05:57;;;;;;;;;;;31.60;93.00;;;;;;1889025;74;20232;-75
2021/09/01 05:08:27;;;;;;;;;;;31.40;92.00;;;;;;1904150;74;20486;-75
2021/09/01 05:10:56;;;;;;;;;;;31.30;92.30;;;;;;1888601;74;20235;-75
2021/09/01 05:13:26;;;;;;;;;;;31.30;92.70;;;;;;1895974;74;20217;-75
2021/09/01 05:15:57;;;;;;;;;;;31.50;92.00;;;;;;1890501;75;20451;-74
2021/09/01 05:18:30;;;;;;;;;;;31.50;93.50;;;;;;1888875;75;20194;-74
2021/09/01 05:21:00;;;;;;;;;;;31.50;91.50;;;;;;1853392;75;20174;-75
2021/09/01 05:23:31;;;;;;;;;;;31.40;91.30;;;;;;1863364;76;20197;-75
2021/09/01 05:26:02;;;;;;;;;;;31.40;91.70;;;;;;1875172;75;20186;-76
2021/09/01 05:28:33;;;;;;;;;;;31.50;91.70;;;;;;1888487;74;20217;-75
2021/09/01 05:31:05;;;;;;;;;;;31.60;91.60;;;;;;1892297;74;20264;-75
2021/09/01 05:33:36;;;;;;;;;;;31.60;90.00;;;;;;1869803;75;20188;-75
2021/09/01 05:36:06;;;;;;;;;;;31.60;89.90;;;;;;1849030;76;20193;-74
2021/09/01 05:38:38;;;;;;;;;;;31.60;89.40;;;;;;1868203;76;20193;-76
2021/09/01 05:41:08;;;;;;;;;;;31.70;90.50;;;;;;1855798;76;20217;-75
2021/09/01 05:46:53;;;;;;;;;;;32.10;88.90;;;;;;1865224;75;20183;-76
2021/09/01 05:49:21;;;;;;;;;;;32.30;90.00;;;;;;1877523;75;20200;-75
2021/09/01 05:51:50;;;;;;;;;;;32.30;89.70;;;;;;1872177;75;20195;-75
2021/09/01 05:54:20;;;;;;;;;;;32.30;89.10;;;;;;1859331;76;20242;-76
2021/09/01 05:56:51;;;;;;;;;;;32.20;91.50;;;;;;1885529;75;21010;-75
2021/09/01 06:00:08;;;;;;;;;;;32.10;91.30;;;;;;1815169;78;20177;-73
2021/09/01 06:08:25;;;;;;;;;;;31.90;91.50;;;;;;1861834;76;20634;-75
2021/09/01 06:11:47;;;;;;;;;;;31.80;91.80;;;;;;1872747;76;20166;-77
2021/09/01 06:13:45;;;;;;;;;;;31.70;91.10;;;;;;1861174;76;20190;-77
2021/09/01 06:16:15;;;;;;;;;;;31.60;92.20;;;;;;1864218;76;20140;-75
2021/09/01 06:18:44;;;;;;;;;;;31.50;92.50;;;;;;1886477;75;20412;-75
2021/09/01 06:21:15;;;;;;;;;;;31.50;91.40;;;;;;1878771;75;20165;-75
2021/09/01 06:23:45;;;;;;;;;;;31.40;91.20;;;;;;1842594;77;20671;-74
2021/09/01 06:26:19;;;;;;;;;;;31.30;91.40;;;;;;1844080;76;20186;-76
2021/09/01 06:28:49;;;;;;;;;;;31.20;91.60;;;;;;1842141;77;20266;-75
2021/09/01 06:31:40;;;;;;;;;;;31.10;92.40;;;;;;1844316;76;20217;-74
2021/09/01 06:34:11;;;;;;;;;;;31.10;92.70;;;;;;1778301;79;20358;-76
2021/09/01 06:37:34;;;;;;;;;;;31.00;92.40;;;;;;1779537;79;20551;-75
2021/09/01 06:39:51;;;;;;;;;;;31.00;93.30;;;;;;1746765;79;20532;-75
2021/09/01 06:42:31;;;;;;;;;;;31.00;92.90;;;;;;1838539;76;20274;-75
2021/09/01 06:45:27;;;;;;;;;;;31.00;92.30;;;;;;1737920;81;20161;-76
2021/09/01 06:48:09;;;;;;;;;;;31.00;92.50;;;;;;1746594;81;20187;-76
2021/09/01 06:50:39;;;;;;;;;;;31.00;92.40;;;;;;1747236;81;20251;-75
2021/09/01 06:53:12;;;;;;;;;;;31.00;92.30;;;;;;1772249;78;20602;-76
2021/09/01 06:56:13;;;;;;;;;;;31.00;92.60;;;;;;1763396;79;20459;-76
2021/09/01 06:58:41;;;;;;;;;;;31.10;92.40;;;;;;1791979;78;20984;-75
2021/09/01 07:01:12;;;;;;;;;;;31.10;91.80;;;;;;1754180;81;20230;-76
2021/09/01 07:03:42;;;;;;;;;;;31.10;91.90;;;;;;1802859;79;20480;-75
2021/09/01 07:06:12;;;;;;;;;;;31.10;92.50;;;;;;1765336;81;20202;-76
2021/09/01 07:08:41;;;;;;;;;;;31.20;92.70;;;;;;1753733;81;20276;-76
2021/09/01 07:11:11;;;;;;;;;;;31.30;92.10;;;;;;1767930;78;20228;-76
2021/09/01 07:13:41;;;;;;;;;;;31.30;92.00;;;;;;1830344;77;20215;-76
2021/09/01 07:16:12;;;;;;;;;;;31.40;90.90;;;;;;1814501;78;20236;-76
2021/09/01 07:18:41;;;;;;;;;;;31.50;91.70;;;;;;1824739;76;20183;-75
2021/09/01 07:21:13;;;;;;;;;;;31.50;90.20;;;;;;1795241;78;20602;-75
2021/09/01 07:23:42;;;;;;;;;;;31.50;90.60;;;;;;1868546;75;20201;-76
2021/09/01 07:26:13;;;;;;;;;;;31.50;91.20;;;;;;1885325;75;20124;-76
2021/09/01 07:28:52;;;;;;;;;;;31.60;91.00;;;;;;1805236;78;20101;-76
2021/09/01 07:31:23;;;;;;;;;;;31.70;90.10;;;;;;1900880;75;20176;-77
2021/09/01 07:34:17;;;;;;;;;;;31.70;90.40;;;;;;1843973;75;20184;-75
2021/09/01 07:39:42;;;;;;;;;;;31.90;89.70;;;;;;1856856;74;20472;-76
2021/09/01 07:42:17;;;;;;;;;;;31.90;88.50;;;;;;1805146;79;20218;-76
2021/09/01 07:44:45;;;;;;;;;;;31.90;89.00;;;;;;1830717;78;20189;-75
2021/09/01 07:47:15;;;;;;;;;;;31.90;86.70;;;;;;1829183;77;20195;-75
2021/09/01 07:49:47;;;;;;;;;;;31.80;88.30;;;;;;1847404;76;20219;-77
2021/09/01 07:52:17;;;;;;;;;;;31.70;89.20;;;;;;1845654;77;20224;-75
2021/09/01 07:54:46;;;;;;;;;;;31.60;88.10;;;;;;1829717;78;20174;-76
2021/09/01 07:57:17;;;;;;;;;;;31.50;90.30;;;;;;1823410;76;20170;-75
2021/09/01 07:59:57;;;;;;;;;;;31.40;91.10;;;;;;1829366;76;20194;-76
2021/09/01 08:02:26;;;;;;;;;;;31.30;91.80;;;;;;1829955;77;20166;-76
2021/09/01 08:04:57;;;;;;;;;;;31.10;91.00;;;;;;1830099;76;20893;-75
2021/09/01 08:07:27;;;;;;;;;;;31.00;90.90;;;;;;1840992;76;20271;-76
2021/09/01 08:09:59;;;;;;;;;;;31.00;91.20;;;;;;1832643;76;20470;-76
2021/09/01 08:12:34;;;;;;;;;;;30.90;91.20;;;;;;1821499;78;20133;-76
2021/09/01 08:15:01;;;;;;;;;;;30.80;91.90;;;;;;1825397;76;20482;-76
2021/09/01 08:17:31;;;;;;;;;;;30.80;92.30;;;;;;1839644;76;20135;-76
2021/09/01 08:20:01;;;;;;;;;;;30.80;91.90;;;;;;1830328;76;20423;-75
2021/09/01 08:22:31;;;;;;;;;;;30.70;92.30;;;;;;1827860;76;20236;-75
2021/09/01 08:25:00;;;;;;;;;;;30.70;92.50;;;;;;1828850;77;20213;-75
2021/09/01 08:27:31;;;;;;;;;;;30.50;92.90;;;;;;1850114;75;20169;-75
2021/09/01 08:30:00;;;;;;;;;;;30.50;92.30;;;;;;1826974;77;20178;-75
2021/09/01 08:32:30;;;;;;;;;;;30.40;91.80;;;;;;1830584;77;20211;-76
2021/09/01 08:34:59;;;;;;;;;;;30.20;91.90;;;;;;1857049;76;20527;-75
2021/09/01 08:37:30;;;;;;;;;;;30.20;92.00;;;;;;1837726;77;20184;-75
2021/09/01 08:40:06;;;;;;;;;;;30.10;92.70;;;;;;1845245;76;20257;-76
2021/09/01 08:42:30;;;;;;;;;;;30.00;93.90;;;;;;1846973;76;20486;-75
2021/09/01 08:45:00;;;;;;;;;;;30.00;94.40;;;;;;1843380;77;20238;-74
2021/09/01 08:47:31;;;;;;;;;;;29.90;96.80;;;;;;1882013;75;20184;-75
2021/09/01 08:50:01;;;;;;;;;;;29.70;97.90;;;;;;1860023;77;20939;-75
2021/09/01 08:52:32;;;;;;;;;;;29.40;98.00;;;;;;1850692;76;20426;-76
2021/09/01 08:55:01;;;;;;;;;;;29.00;99.00;;;;;;1847318;76;20296;-75
2021/09/01 08:57:32;;;;;;;;;;;28.70;98.50;;;;;;1854455;75;20160;-74
2021/09/01 09:00:02;;;;;;;;;;;28.40;98.70;;;;;;1837284;77;20417;-75
2021/09/01 09:02:31;;;;;;;;;;;28.20;98.90;;;;;;1853490;77;20413;-75
2021/09/01 09:05:02;;;;;;;;;;;28.00;99.20;;;;;;1865379;75;20180;-75
2021/09/01 09:07:32;;;;;;;;;;;;;;;;;;1850955;77;20198;-75
2021/09/01 09:10:02;;;;;;;;;;;27.80;99.80;;;;;;1818134;77;20176;-75
2021/09/01 09:12:32;;;;;;;;;;;27.60;99.90;;;;;;1847344;75;20200;-77
2021/09/01 09:15:05;;;;;;;;;;;27.60;99.90;;;;;;1840320;77;20275;-76
2021/09/01 09:17:38;;;;;;;;;;;27.60;99.90;;;;;;1839864;77;20214;-76
2021/09/01 09:20:09;;;;;;;;;;;27.70;99.90;;;;;;1858163;77;20270;-77
2021/09/01 09:22:39;;;;;;;;;;;27.70;99.90;;;;;;1857971;77;20247;-77
2021/09/01 09:25:11;;;;;;;;;;;27.70;99.90;;;;;;1852990;77;20226;-76
2021/09/01 09:27:43;;;;;;;;;;;27.70;99.90;;;;;;1853996;77;20556;-77
2021/09/01 09:30:14;;;;;;;;;;;27.70;99.90;;;;;;1857518;77;20164;-77
2021/09/01 09:32:45;;;;;;;;;;;27.70;99.90;;;;;;1852627;75;20560;-77
2021/09/01 09:35:15;;;;;;;;;;;27.70;99.90;;;;;;1855471;75;20170;-77
2021/09/01 09:37:44;;;;;;;;;;;27.70;99.90;;;;;;1857536;77;20221;-77
2021/09/01 09:40:15;;;;;;;;;;;27.70;99.90;;;;;;1849923;76;20278;-77
2021/09/01 09:42:45;;;;;;;;;;;27.70;99.90;;;;;;1837830;76;20641;-77
2021/09/01 09:45:15;;;;;;;;;;;27.60;99.90;;;;;;1835450;77;20190;-76
2021/09/01 09:47:45;;;;;;;;;;;27.50;99.90;;;;;;1831381;76;20135;-75
2021/09/01 09:50:22;;;;;;;;;;;27.50;99.90;;;;;;1863570;75;20140;-76
2021/09/01 09:52:52;;;;;;;;;;;27.50;99.90;;;;;;1836475;76;20172;-77
2021/09/01 09:55:23;;;;;;;;;;;27.40;99.90;;;;;;1833755;76;20170;-77
2021/09/01 09:58:00;;;;;;;;;;;27.40;99.90;;;;;;1833912;76;20214;-75
2021/09/01 10:00:30;;;;;;;;;;;27.40;99.90;;;;;;1849900;76;20182;-76
2021/09/01 10:03:01;;;;;;;;;;;27.40;99.90;;;;;;1841564;77;20261;-75
2021/09/01 10:05:33;;;;;;;;;;;27.50;99.90;;;;;;1844336;77;20224;-75
2021/09/01 10:08:06;;;;;;;;;;;27.50;99.90;;;;;;1840543;77;20169;-75
2021/09/01 10:10:48;;;;;;;;;;;27.40;99.90;;;;;;1846049;76;20146;-76
2021/09/01 10:13:19;;;;;;;;;;;27.50;99.90;;;;;;1838534;77;20537;-74
2021/09/01 10:15:50;;;;;;;;;;;27.40;99.90;;;;;;1843672;77;20197;-77
2021/09/01 10:18:21;;;;;;;;;;;27.40;99.90;;;;;;1839875;77;20178;-76
2021/09/01 10:20:54;;;;;;;;;;;27.40;99.90;;;;;;1844437;77;20209;-76
2021/09/01 10:23:27;;;;;;;;;;;27.40;99.90;;;;;;1820996;77;20309;-77
2021/09/01 10:25:57;;;;;;;;;;;27.40;99.90;;;;;;1849504;76;20531;-75
2021/09/01 10:28:31;;;;;;;;;;;27.40;99.90;;;;;;1843250;77;20205;-76
2021/09/01 10:31:02;;;;;;;;;;;27.40;99.90;;;;;;1832606;77;20204;-77
2021/09/01 10:33:33;;;;;;;;;;;27.50;99.90;;;;;;1848359;77;20205;-77
2021/09/01 10:36:04;;;;;;;;;;;27.50;99.90;;;;;;1837116;77;20248;-76
2021/09/01 10:38:34;;;;;;;;;;;27.50;99.90;;;;;;1843960;77;20184;-76
2021/09/01 10:41:04;;;;;;;;;;;27.50;99.90;;;;;;1843695;77;20912;-77
2021/09/01 10:43:34;;;;;;;;;;;27.60;99.90;;;;;;1834057;77;20188;-77
2021/09/01 10:46:04;;;;;;;;;;;27.50;99.90;;;;;;1848864;76;20226;-75
2021/09/01 10:48:41;;;;;;;;;;;27.50;99.90;;;;;;1813161;79;20163;-76
2021/09/01 10:51:25;;;;;;;;;;;27.50;99.90;;;;;;1857788;75;20215;-74
2021/09/01 10:53:54;;;;;;;;;;;27.50;99.90;;;;;;1857852;75;20236;-74
2021/09/01 10:56:28;;;;;;;;;;;27.50;99.90;;;;;;1826690;77;20182;-75
2021/09/01 10:59:03;;;;;;;;;;;27.50;99.90;;;;;;1858644;75;20558;-76
2021/09/01 11:01:30;;;;;;;;;;;27.50;99.90;;;;;;1856717;75;20156;-76
2021/09/01 11:04:03;;;;;;;;;;;27.50;99.90;;;;;;1828810;77;20286;-76
2021/09/01 11:06:33;;;;;;;;;;;27.40;99.90;;;;;;1841017;77;20176;-76
2021/09/01 11:09:05;;;;;;;;;;;27.40;99.90;;;;;;1839007;77;20159;-91
2021/09/01 11:11:35;;;;;;;;;;;27.50;99.90;;;;;;1818689;75;20228;-94
2021/09/01 11:14:05;;;;;;;;;;;27.50;99.90;;;;;;1848290;77;20214;-92
2021/09/01 11:16:35;;;;;;;;;;;27.40;99.90;;;;;;1827834;77;20261;-92
2021/09/01 11:19:10;;;;;;;;;;;27.40;99.90;;;;;;1903085;73;20156;-94
2021/09/01 11:24:34;;;;;;;;;;;27.40;99.90;;;;;;1912041;71;20249;-89
2021/09/01 11:27:23;;;;;;;;;;;27.40;99.90;;;;;;1812002;73;20202;-93
2021/09/01 11:30:03;;;;;;;;;;;27.30;99.90;;;;;;1854364;74;20107;-94
2021/09/01 11:32:32;;;;;;;;;;;27.30;99.90;;;;;;1859116;75;20117;-94
2021/09/01 11:35:27;;;;;;;;;;;27.30;99.90;;;;;;1858324;76;20121;-90
2021/09/01 11:38:14;;;;;;;;;;;27.20;99.90;;;;;;1822267;74;21978;-90
2021/09/01 11:41:10;;;;;;;;;;;27.20;99.90;;;;;;1838308;74;20192;-94
2021/09/01 11:46:41;;;;;;;;;;;27.20;99.90;;;;;;1808664;75;20192;-94
2021/09/01 11:49:15;;;;;;;;;;;27.20;99.90;;;;;;1876390;76;20229;-91
2021/09/01 11:52:07;;;;;;;;;;;27.20;99.90;;;;;;1878458;74;20151;-91
2021/09/01 11:54:43;;;;;;;;;;;27.20;99.90;;;;;;1873631;75;20260;-88
2021/09/01 11:57:18;;;;;;;;;;;27.20;99.90;;;;;;1878855;75;20117;-92
2021/09/01 11:59:51;;;;;;;;;;;27.20;99.90;;;;;;1866154;74;20236;-93
2021/09/01 12:02:44;;;;;;;;;;;;;;;;;;;;;
2021/09/01 12:05:09;;;;;;;;;;;27.10;99.90;;;;;;1880386;75;20276;-93
2021/09/01 12:07:53;;;;;;;;;;;27.10;99.90;;;;;;1876089;75;20219;-95
2021/09/01 12:13:13;;;;;;;;;;;27.10;99.90;;;;;;1795873;76;20254;-94
2021/09/01 12:15:54;;;;;;;;;;;27.00;99.90;;;;;;1888008;74;20164;-91
2021/09/01 12:18:23;;;;;;;;;;;27.10;99.90;;;;;;1864729;76;20216;-91
2021/09/01 12:20:54;;;;;;;;;;;27.00;99.90;;;;;;1871213;75;20227;-93
2021/09/01 12:23:25;;;;;;;;;;;27.10;99.90;;;;;;1874709;75;20231;-94
2021/09/01 12:26:49;;;;;;;;;;;27.10;99.90;;;;;;1754916;80;20190;-89
2021/09/01 12:29:16;;;;;;;;;;;27.00;99.90;;;;;;1736691;80;20148;-88
2021/09/01 12:31:59;;;;;;;;;;;27.00;99.90;;;;;;1749750;80;20320;-88
2021/09/01 12:34:34;;;;;;;;;;;27.00;99.90;;;;;;1752050;80;20196;-94
2021/09/01 12:37:16;;;;;;;;;;;27.00;99.90;;;;;;1746698;80;20570;-93
2021/09/01 12:39:43;;;;;;;;;;;27.00;99.90;;;;;;1752664;80;20627;-92
2021/09/01 12:42:14;;;;;;;;;;;27.00;99.90;;;;;;1791614;77;20274;-94
2021/09/01 12:44:52;;;;;;;;;;;27.00;99.90;;;;;;1828400;77;20296;-92
2021/09/01 12:47:24;;;;;;;;;;;27.00;99.90;;;;;;1827324;77;20256;-91
2021/09/01 12:49:53;;;;;;;;;;;26.90;99.90;;;;;;1824172;76;20221;-90
2021/09/01 12:52:27;;;;;;;;;;;26.90;99.90;;;;;;1825316;77;20241;-92
2021/09/01 12:55:08;;;;;;;;;;;;;;;;;;;;;
2021/09/01 12:57:46;;;;;;;;;;;26.90;99.90;;;;;;1900961;71;20180;-88
2021/09/01 13:00:16;;;;;;;;;;;26.90;99.90;;;;;;1947255;72;20191;-88
2021/09/01 13:02:48;;;;;;;;;;;26.80;99.90;;;;;;1865088;74;20178;-93
2021/09/01 13:05:21;;;;;;;;;;;26.80;99.90;;;;;;1900614;74;20169;-92
2021/09/01 13:07:54;;;;;;;;;;;26.80;99.90;;;;;;1894741;73;20623;-87
2021/09/01 13:10:25;;;;;;;;;;;26.70;99.90;;;;;;1905516;73;20616;-87
2021/09/01 13:12:57;;;;;;;;;;;26.70;99.90;;;;;;1942933;72;20181;-91
2021/09/01 13:15:26;;;;;;;;;;;26.70;99.90;;;;;;1944093;72;20208;-88
2021/09/01 13:17:59;;;;;;;;;;;26.70;99.90;;;;;;1943217;72;20147;-90
2021/09/01 13:20:29;;;;;;;;;;;26.60;99.90;;;;;;1945870;72;20592;-87
2021/09/01 13:22:59;;;;;;;;;;;26.70;99.90;;;;;;1943174;71;20293;-86
2021/09/01 13:25:42;;;;;;;;;;;26.70;99.90;;;;;;1882062;74;20203;-93
2021/09/01 13:28:18;;;;;;;;;;;26.70;99.90;;;;;;1930430;72;20556;-92
2021/09/01 13:31:08;;;;;;;;;;;26.70;99.90;;;;;;1947052;72;20172;-93
2021/09/01 13:33:38;;;;;;;;;;;26.70;99.90;;;;;;1946807;72;20224;-95
2021/09/01 13:36:13;;;;;;;;;;;26.70;99.90;;;;;;1945005;72;20627;-93
2021/09/01 13:38:42;;;;;;;;;;;26.70;99.90;;;;;;1943871;72;20204;-92
2021/09/01 13:41:14;;;;;;;;;;;26.70;99.90;;;;;;1937085;72;20192;-90
2021/09/01 13:43:46;;;;;;;;;;;26.70;99.90;;;;;;1946593;72;20168;-92
2021/09/01 13:46:28;;;;;;;;;;;26.70;99.90;;;;;;1943301;72;20198;-87
2021/09/01 13:49:15;;;;;;;;;;;26.80;99.90;;;;;;1942052;72;20198;-91
2021/09/01 13:51:44;;;;;;;;;;;26.80;99.90;;;;;;1944034;72;20149;-91
2021/09/01 13:54:18;;;;;;;;;;;26.80;99.90;;;;;;1951942;72;20234;-92
2021/09/01 13:57:00;;;;;;;;;;;26.80;99.90;;;;;;1948634;71;20145;-89
2021/09/01 13:59:35;;;;;;;;;;;26.90;99.90;;;;;;1939948;72;20133;-92
2021/09/01 14:02:10;;;;;;;;;;;26.90;99.90;;;;;;1941906;72;20187;-93
2021/09/01 14:04:42;;;;;;;;;;;26.90;99.90;;;;;;1940485;71;20183;-91
2021/09/01 14:07:13;;;;;;;;;;;26.80;99.90;;;;;;1943832;72;20234;-88
2021/09/01 14:09:46;;;;;;;;;;;26.80;99.90;;;;;;1941662;72;20191;-91
2021/09/01 14:12:17;;;;;;;;;;;26.80;99.90;;;;;;1937267;72;20190;-90
2021/09/01 14:14:47;;;;;;;;;;;26.80;99.90;;;;;;1963007;72;20113;-92
2021/09/01 14:17:17;;;;;;;;;;;26.80;99.90;;;;;;1931428;72;20220;-92
2021/09/01 14:19:47;;;;;;;;;;;26.80;99.90;;;;;;1947352;72;20185;-92
2021/09/01 14:22:23;;;;;;;;;;;26.70;99.90;;;;;;1940033;72;20329;-91
2021/09/01 14:24:57;;;;;;;;;;;26.80;99.90;;;;;;1941665;72;20178;-87
2021/09/01 14:27:36;;;;;;;;;;;26.80;99.90;;;;;;1942676;72;20282;-91
2021/09/01 14:30:06;;;;;;;;;;;26.80;99.90;;;;;;1883262;74;20235;-92
2021/09/01 14:32:42;;;;;;;;;;;26.80;99.90;;;;;;1873012;74;20503;-93
2021/09/01 14:35:12;;;;;;;;;;;26.80;99.90;;;;;;1901025;73;20452;-86
2021/09/01 14:37:42;;;;;;;;;;;26.80;99.90;;;;;;1906664;74;20193;-93
2021/09/01 14:40:19;;;;;;;;;;;26.70;99.90;;;;;;1907318;75;20621;-90
2021/09/01 14:42:49;;;;;;;;;;;26.70;99.90;;;;;;1911657;75;20258;-90
2021/09/01 14:45:21;;;;;;;;;;;26.70;99.90;;;;;;1914318;75;20185;-92
2021/09/01 14:47:54;;;;;;;;;;;26.80;99.90;;;;;;1879180;75;20875;-92
2021/09/01 14:50:24;;;;;;;;;;;26.70;99.90;;;;;;1908240;75;20130;-92
2021/09/01 14:52:55;;;;;;;;;;;26.70;99.90;;;;;;1935331;74;20527;-91
2021/09/01 14:55:31;;;;;;;;;;;26.70;99.90;;;;;;1902057;74;20200;-93
2021/09/01 14:58:05;;;;;;;;;;;26.70;99.90;;;;;;1938465;72;20534;-89
2021/09/01 15:00:35;;;;;;;;;;;26.80;99.90;;;;;;1935686;72;20192;-91
2021/09/01 15:03:05;;;;;;;;;;;26.80;99.90;;;;;;1929915;72;20186;-91
2021/09/01 15:05:39;;;;;;;;;;;26.70;99.90;;;;;;1943125;72;20271;-91
2021/09/01 15:08:25;;;;;;;;;;;26.80;99.90;;;;;;1942153;72;20341;-90
2021/09/01 15:11:04;;;;;;;;;;;;;;;;;;;;;
2021/09/01 15:13:48;;;;;;;;;;;26.70;99.90;;;;;;1797566;79;20238;-93
2021/09/01 15:16:19;;;;;;;;;;;26.70;99.90;;;;;;1807554;79;20168;-92
2021/09/01 15:18:49;;;;;;;;;;;26.60;99.90;;;;;;1847144;77;20248;-92
2021/09/01 15:21:42;;;;;;;;;;;26.60;99.90;;;;;;1842436;77;20182;-93
2021/09/01 15:23:59;;;;;;;;;;;26.60;99.90;;;;;;1760437;79;20255;-93
2021/09/01 15:26:39;;;;;;;;;;;26.60;99.90;;;;;;1776052;81;20340;-93
2021/09/01 15:29:17;;;;;;;;;;;26.60;99.90;;;;;;1776834;81;20168;-94
2021/09/01 15:31:55;;;;;;;;;;;26.60;99.90;;;;;;1733122;79;20183;-92
2021/09/01 15:34:22;;;;;;;;;;;26.70;99.90;;;;;;1775066;81;20283;-91
2021/09/01 15:37:14;;;;;;;;;;;26.70;99.90;;;;;;1768980;81;20145;-92
2021/09/01 15:39:45;;;;;;;;;;;26.70;99.90;;;;;;1757780;81;20230;-90
2021/09/01 15:42:19;;;;;;;;;;;26.70;99.90;;;;;;1751796;81;20235;-91
2021/09/01 15:44:52;;;;;;;;;;;26.70;99.90;;;;;;1754433;81;20257;-95
2021/09/01 15:47:25;;;;;;;;;;;26.70;99.90;;;;;;1751382;81;20223;-90
2021/09/01 15:50:01;;;;;;;;;;;26.70;99.90;;;;;;1747319;79;20192;-91